sensor_id;sensor_type;location;lat;lon;timestamp;pressure;altitude;pressure_sealevel;temperature;humidity
50380;BME280;37474;59.468;18.040;2022-10-31T00:01:42;101656.53;;;-1.75;100.00
50380;BME280;37474;59.468;18.040;2022-10-31T00:04:13;101651.53;;;-1.69;100.00
50380;BME280;37474;59.468;18.040;2022-10-31T00:06:43;101656.69;;;-1.61;100.00
50380;BME280;37474;59.468;18.040;2022-10-31T00:09:11;101602.69;;;-2.07;100.00
50380;BME280;37474;59.468;18.040;2022-10-31T00:11:41;101655.69;;;-1.74;100.00
50380;BME280;37474;59.468;18.040;2022-10-31T00:14:13;101655.53;;;-1.86;100.00
50380;BME280;37474;59.468;18.040;2022-10-31T00:16:41;101638.50;;;-1.92;100.00
50380;BME280;37474;59.468;18.040;2022-10-31T00:19:12;101650.44;;;-1.86;100.00
50380;BME280;37474;59.468;18.040;2022-10-31T00:21:42;101645.44;;;-1.78;100.00
50380;BME280;37474;59.468;18.040;2022-10-31T00:24:10;101649.63;;;-1.83;100.00
50380;BME280;37474;59.468;18.040;2022-10-31T00:26:40;101648.75;;;-1.87;100.00
50380;BME280;37474;59.468;18.040;2022-10-31T00:29:10;101648.81;;;-1.82;100.00
50380;BME280;37474;59.468;18.040;2022-10-31T00:31:39;101653.22;;;-1.69;100.00
50380;BME280;37474;59.468;18.040;2022-10-31T00:34:09;101620.66;;;-1.95;100.00
50380;BME280;37474;59.468;18.040;2022-10-31T00:36:40;101570.97;;;-2.36;100.00
50380;BME280;37474;59.468;18.040;2022-10-31T00:39:08;101594.75;;;-2.30;100.00
50380;BME280;37474;59.468;18.040;2022-10-31T00:41:38;101651.28;;;-1.87;100.00
50380;BME280;37474;59.468;18.040;2022-10-31T00:44:08;101649.69;;;-1.80;100.00
50380;BME280;37474;59.468;18.040;2022-10-31T00:46:36;101595.91;;;-2.09;100.00
50380;BME280;37474;59.468;18.040;2022-10-31T00:49:06;101643.75;;;-1.78;100.00
50380;BME280;37474;59.468;18.040;2022-10-31T00:51:36;101594.31;;;-2.03;100.00
50380;BME280;37474;59.468;18.040;2022-10-31T00:54:05;101652.22;;;-1.80;100.00
50380;BME280;37474;59.468;18.040;2022-10-31T00:56:35;101589.78;;;-2.22;100.00
50380;BME280;37474;59.468;18.040;2022-10-31T00:59:07;101627.44;;;-1.95;100.00
50380;BME280;37474;59.468;18.040;2022-10-31T01:01:35;101566.91;;;-2.24;100.00
50380;BME280;37474;59.468;18.040;2022-10-31T01:04:04;101595.97;;;-2.05;100.00
50380;BME280;37474;59.468;18.040;2022-10-31T01:06:36;101624.19;;;-1.87;100.00
50380;BME280;37474;59.468;18.040;2022-10-31T01:09:05;101638.75;;;-1.73;100.00
50380;BME280;37474;59.468;18.040;2022-10-31T01:11:33;101636.09;;;-1.82;100.00
50380;BME280;37474;59.468;18.040;2022-10-31T01:14:05;101608.78;;;-1.97;100.00
50380;BME280;37474;59.468;18.040;2022-10-31T01:16:35;101599.44;;;-1.98;100.00
50380;BME280;37474;59.468;18.040;2022-10-31T01:19:03;101607.94;;;-1.95;100.00
50380;BME280;37474;59.468;18.040;2022-10-31T01:21:33;101643.97;;;-1.63;100.00
50380;BME280;37474;59.468;18.040;2022-10-31T01:24:05;101633.00;;;-1.60;100.00
50380;BME280;37474;59.468;18.040;2022-10-31T01:26:33;101633.09;;;-1.51;100.00
50380;BME280;37474;59.468;18.040;2022-10-31T01:29:05;101617.88;;;-1.49;100.00
50380;BME280;37474;59.468;18.040;2022-10-31T01:31:37;101630.47;;;-1.58;100.00
50380;BME280;37474;59.468;18.040;2022-10-31T01:34:09;101594.59;;;-1.81;100.00
50380;BME280;37474;59.468;18.040;2022-10-31T01:36:43;101640.56;;;-1.66;100.00
50380;BME280;37474;59.468;18.040;2022-10-31T01:39:17;101636.41;;;-1.58;100.00
50380;BME280;37474;59.468;18.040;2022-10-31T01:41:49;101629.78;;;-1.47;100.00
50380;BME280;37474;59.468;18.040;2022-10-31T01:44:56;101629.97;;;-1.33;100.00
50380;BME280;37474;59.468;18.040;2022-10-31T01:47:41;101565.09;;;-1.67;100.00
50380;BME280;37474;59.468;18.040;2022-10-31T01:50:24;101585.50;;;-1.61;100.00
50380;BME280;37474;59.468;18.040;2022-10-31T01:52:56;101529.22;;;-1.92;100.00
50380;BME280;37474;59.468;18.040;2022-10-31T01:55:30;101634.03;;;-1.46;100.00
50380;BME280;37474;59.468;18.040;2022-10-31T01:58:05;101593.91;;;-1.68;100.00
50380;BME280;37474;59.468;18.040;2022-10-31T02:00:37;101630.63;;;-1.45;100.00
50380;BME280;37474;59.468;18.040;2022-10-31T02:03:08;101631.38;;;-1.55;100.00
50380;BME280;37474;59.468;18.040;2022-10-31T02:05:41;101629.13;;;-1.32;100.00
50380;BME280;37474;59.468;18.040;2022-10-31T02:08:14;101568.47;;;-1.68;100.00
50380;BME280;37474;59.468;18.040;2022-10-31T02:10:48;101623.84;;;-1.46;100.00
50380;BME280;37474;59.468;18.040;2022-10-31T02:13:18;101631.53;;;-1.40;100.00
50380;BME280;37474;59.468;18.040;2022-10-31T02:15:52;101637.47;;;-1.41;100.00
50380;BME280;37474;59.468;18.040;2022-10-31T02:18:24;101584.53;;;-1.72;100.00
50380;BME280;37474;59.468;18.040;2022-10-31T02:21:00;101626.38;;;-1.49;100.00
50380;BME280;37474;59.468;18.040;2022-10-31T02:26:49;101623.69;;;-1.58;100.00
50380;BME280;37474;59.468;18.040;2022-10-31T02:30:03;101634.03;;;-1.46;100.00
50380;BME280;37474;59.468;18.040;2022-10-31T02:32:43;101625.41;;;-1.57;100.00
50380;BME280;37474;59.468;18.040;2022-10-31T02:35:24;101575.19;;;-1.76;100.00
50380;BME280;37474;59.468;18.040;2022-10-31T02:38:04;101633.28;;;-1.37;100.00
50380;BME280;37474;59.468;18.040;2022-10-31T02:40:36;101632.31;;;-1.47;100.00
50380;BME280;37474;59.468;18.040;2022-10-31T02:43:12;101630.56;;;-1.51;100.00
50380;BME280;37474;59.468;18.040;2022-10-31T02:45:49;101558.81;;;-1.95;100.00
50380;BME280;37474;59.468;18.040;2022-10-31T02:48:26;101635.97;;;-1.23;100.00
50380;BME280;37474;59.468;18.040;2022-10-31T02:51:00;101637.47;;;-1.44;100.00
50380;BME280;37474;59.468;18.040;2022-10-31T02:53:32;101640.00;;;-1.44;100.00
50380;BME280;37474;59.468;18.040;2022-10-31T02:56:04;101642.56;;;-1.41;100.00
50380;BME280;37474;59.468;18.040;2022-10-31T02:58:38;101631.34;;;-1.58;100.00
50380;BME280;37474;59.468;18.040;2022-10-31T03:04:25;101646.75;;;-1.46;100.00
50380;BME280;37474;59.468;18.040;2022-10-31T03:07:03;101586.19;;;-1.74;100.00
50380;BME280;37474;59.468;18.040;2022-10-31T03:09:41;101651.09;;;-1.36;100.00
50380;BME280;37474;59.468;18.040;2022-10-31T03:12:14;101610.94;;;-1.61;100.00
50380;BME280;37474;59.468;18.040;2022-10-31T03:14:50;101560.59;;;-1.90;100.00
50380;BME280;37474;59.468;18.040;2022-10-31T03:17:25;101631.66;;;-1.32;100.00
50380;BME280;37474;59.468;18.040;2022-10-31T03:19:58;101642.81;;;-1.21;100.00
50380;BME280;37474;59.468;18.040;2022-10-31T03:22:29;101641.06;;;-1.23;100.00
50380;BME280;37474;59.468;18.040;2022-10-31T03:25:03;101647.06;;;-1.17;100.00
50380;BME280;37474;59.468;18.040;2022-10-31T03:27:33;101624.94;;;-1.25;100.00
50380;BME280;37474;59.468;18.040;2022-10-31T03:30:06;101652.28;;;-1.09;100.00
50380;BME280;37474;59.468;18.040;2022-10-31T03:32:41;101598.78;;;-1.15;100.00
50380;BME280;37474;59.468;18.040;2022-10-31T03:35:17;101634.81;;;-0.72;100.00
50380;BME280;37474;59.468;18.040;2022-10-31T03:37:49;101612.75;;;-0.73;100.00
50380;BME280;37474;59.468;18.040;2022-10-31T03:40:23;101557.44;;;-0.90;100.00
50380;BME280;37474;59.468;18.040;2022-10-31T03:42:58;101605.28;;;-0.52;100.00
50380;BME280;37474;59.468;18.040;2022-10-31T03:45:32;101642.03;;;-0.22;100.00
50380;BME280;37474;59.468;18.040;2022-10-31T03:48:05;101547.38;;;-0.73;100.00
50380;BME280;37474;59.468;18.040;2022-10-31T03:50:40;101636.22;;;-0.03;100.00
50380;BME280;37474;59.468;18.040;2022-10-31T03:53:16;101592.81;;;-0.12;100.00
50380;BME280;37474;59.468;18.040;2022-10-31T03:55:52;101632.97;;;0.19;100.00
50380;BME280;37474;59.468;18.040;2022-10-31T03:58:28;101640.66;;;0.22;100.00
50380;BME280;37474;59.468;18.040;2022-10-31T04:01:00;101561.41;;;-0.08;100.00
50380;BME280;37474;59.468;18.040;2022-10-31T04:03:33;101622.84;;;0.36;100.00
50380;BME280;37474;59.468;18.040;2022-10-31T04:06:09;101619.53;;;0.56;100.00
50380;BME280;37474;59.468;18.040;2022-10-31T04:08:43;101580.34;;;0.34;100.00
50380;BME280;37474;59.468;18.040;2022-10-31T04:11:13;101617.06;;;0.74;100.00
50380;BME280;37474;59.468;18.040;2022-10-31T04:13:45;101531.03;;;0.38;100.00
50380;BME280;37474;59.468;18.040;2022-10-31T04:16:18;101601.75;;;0.88;100.00
50380;BME280;37474;59.468;18.040;2022-10-31T04:18:48;101589.00;;;0.78;100.00
50380;BME280;37474;59.468;18.040;2022-10-31T04:21:19;101599.22;;;1.00;100.00
50380;BME280;37474;59.468;18.040;2022-10-31T04:23:56;101606.09;;;1.24;100.00
50380;BME280;37474;59.468;18.040;2022-10-31T04:26:26;101604.38;;;1.21;100.00
50380;BME280;37474;59.468;18.040;2022-10-31T04:28:54;101559.22;;;0.99;100.00
50380;BME280;37474;59.468;18.040;2022-10-31T04:31:24;101589.03;;;1.21;100.00
50380;BME280;37474;59.468;18.040;2022-10-31T04:33:54;101583.09;;;1.18;100.00
50380;BME280;37474;59.468;18.040;2022-10-31T04:36:26;101573.75;;;1.17;100.00
50380;BME280;37474;59.468;18.040;2022-10-31T04:38:55;101595.88;;;1.41;100.00
50380;BME280;37474;59.468;18.040;2022-10-31T04:41:23;101512.41;;;0.94;100.00
50380;BME280;37474;59.468;18.040;2022-10-31T04:43:54;101578.84;;;1.26;100.00
50380;BME280;37474;59.468;18.040;2022-10-31T04:46:23;101594.16;;;1.21;100.00
50380;BME280;37474;59.468;18.040;2022-10-31T04:48:51;101546.47;;;0.90;100.00
50380;BME280;37474;59.468;18.040;2022-10-31T04:51:21;101583.09;;;1.07;100.00
50380;BME280;37474;59.468;18.040;2022-10-31T04:53:53;101590.75;;;1.12;100.00
50380;BME280;37474;59.468;18.040;2022-10-31T04:56:20;101526.03;;;0.73;100.00
50380;BME280;37474;59.468;18.040;2022-10-31T04:58:50;101585.63;;;1.07;100.00
50380;BME280;37474;59.468;18.040;2022-10-31T05:01:20;101572.84;;;1.10;100.00
50380;BME280;37474;59.468;18.040;2022-10-31T05:03:48;101532.84;;;0.89;100.00
50380;BME280;37474;59.468;18.040;2022-10-31T05:06:18;101578.84;;;1.08;100.00
50380;BME280;37474;59.468;18.040;2022-10-31T05:08:48;101588.19;;;1.21;100.00
50380;BME280;37474;59.468;18.040;2022-10-31T05:11:18;101580.56;;;1.28;100.00
50380;BME280;37474;59.468;18.040;2022-10-31T05:13:48;101525.19;;;1.03;100.00
50380;BME280;37474;59.468;18.040;2022-10-31T05:16:18;101544.78;;;1.15;100.00
50380;BME280;37474;59.468;18.040;2022-10-31T05:18:46;101565.22;;;1.35;100.00
50380;BME280;37474;59.468;18.040;2022-10-31T05:21:16;101536.25;;;1.36;100.00
50380;BME280;37474;59.468;18.040;2022-10-31T05:23:44;101477.53;;;1.05;100.00
50380;BME280;37474;59.468;18.040;2022-10-31T05:26:14;101514.97;;;1.50;100.00
50380;BME280;37474;59.468;18.040;2022-10-31T05:28:45;101549.84;;;1.83;100.00
50380;BME280;37474;59.468;18.040;2022-10-31T05:31:14;101564.28;;;1.94;100.00
50380;BME280;37474;59.468;18.040;2022-10-31T05:33:42;101571.03;;;2.19;100.00
50380;BME280;37474;59.468;18.040;2022-10-31T05:36:12;101565.94;;;2.13;100.00
50380;BME280;37474;59.468;18.040;2022-10-31T05:38:43;101561.63;;;2.21;100.00
50380;BME280;37474;59.468;18.040;2022-10-31T05:41:11;101562.44;;;2.32;100.00
50380;BME280;37474;59.468;18.040;2022-10-31T05:43:42;101523.28;;;2.15;100.00
50380;BME280;37474;59.468;18.040;2022-10-31T05:46:12;101559.69;;;2.71;100.00
50380;BME280;37474;59.468;18.040;2022-10-31T05:48:40;101511.22;;;2.43;100.00
50380;BME280;37474;59.468;18.040;2022-10-31T05:51:10;101555.41;;;2.71;100.00
50380;BME280;37474;59.468;18.040;2022-10-31T05:53:41;101556.25;;;2.76;100.00
50380;BME280;37474;59.468;18.040;2022-10-31T05:56:09;101552.72;;;2.92;100.00
50380;BME280;37474;59.468;18.040;2022-10-31T05:58:39;101552.69;;;2.97;100.00
50380;BME280;37474;59.468;18.040;2022-10-31T06:01:10;101538.94;;;3.12;100.00
50380;BME280;37474;59.468;18.040;2022-10-31T06:03:38;101558.41;;;3.31;100.00
50380;BME280;37474;59.468;18.040;2022-10-31T06:06:09;101560.84;;;3.47;100.00
50380;BME280;37474;59.468;18.040;2022-10-31T06:08:39;101552.09;;;3.72;100.00
50380;BME280;37474;59.468;18.040;2022-10-31T06:11:07;101520.38;;;3.79;100.00
50380;BME280;37474;59.468;18.040;2022-10-31T06:13:35;101549.72;;;4.29;100.00
50380;BME280;37474;59.468;18.040;2022-10-31T06:16:07;101564.06;;;4.44;100.00
50380;BME280;37474;59.468;18.040;2022-10-31T06:18:37;101561.44;;;4.48;100.00
50380;BME280;37474;59.468;18.040;2022-10-31T06:21:04;101565.56;;;4.60;100.00
50380;BME280;37474;59.468;18.040;2022-10-31T06:23:38;101517.78;;;4.48;100.00
50380;BME280;37474;59.468;18.040;2022-10-31T06:26:06;101566.78;;;4.96;100.00
50380;BME280;37474;59.468;18.040;2022-10-31T06:28:34;101574.19;;;5.15;100.00
50380;BME280;37474;59.468;18.040;2022-10-31T06:31:04;101530.63;;;5.07;100.00
50380;BME280;37474;59.468;18.040;2022-10-31T06:33:34;101562.81;;;5.31;100.00
50380;BME280;37474;59.468;18.040;2022-10-31T06:36:04;101565.16;;;5.45;100.00
50380;BME280;37474;59.468;18.040;2022-10-31T06:38:34;101557.50;;;5.42;100.00
50380;BME280;37474;59.468;18.040;2022-10-31T06:41:04;101569.19;;;5.61;100.00
50380;BME280;37474;59.468;18.040;2022-10-31T06:43:33;101538.50;;;5.49;100.00
50380;BME280;37474;59.468;18.040;2022-10-31T06:46:04;101561.16;;;5.78;100.00
50380;BME280;37474;59.468;18.040;2022-10-31T06:48:34;101537.13;;;5.79;100.00
50380;BME280;37474;59.468;18.040;2022-10-31T06:51:06;101549.94;;;5.80;100.00
50380;BME280;37474;59.468;18.040;2022-10-31T06:53:34;101538.91;;;5.74;100.00
50380;BME280;37474;59.468;18.040;2022-10-31T06:56:06;101572.66;;;6.06;100.00
50380;BME280;37474;59.468;18.040;2022-10-31T06:58:34;101533.41;;;5.95;100.00
50380;BME280;37474;59.468;18.040;2022-10-31T07:01:02;101537.63;;;5.98;100.00
50380;BME280;37474;59.468;18.040;2022-10-31T07:03:34;101548.59;;;6.07;100.00
50380;BME280;37474;59.468;18.040;2022-10-31T07:06:04;101573.88;;;6.30;100.00
50380;BME280;37474;59.468;18.040;2022-10-31T07:08:32;101551.63;;;6.26;100.00
50380;BME280;37474;59.468;18.040;2022-10-31T07:11:02;101588.19;;;6.44;100.00
50380;BME280;37474;59.468;18.040;2022-10-31T07:13:30;101519.22;;;6.18;100.00
50380;BME280;37474;59.468;18.040;2022-10-31T07:16:00;101542.13;;;6.30;100.00
50380;BME280;37474;59.468;18.040;2022-10-31T07:18:33;101538.75;;;6.28;100.00
50380;BME280;37474;59.468;18.040;2022-10-31T07:21:01;101572.19;;;6.70;100.00
50380;BME280;37474;59.468;18.040;2022-10-31T07:23:30;101587.63;;;6.71;100.00
50380;BME280;37474;59.468;18.040;2022-10-31T07:26:03;101580.00;;;6.67;100.00
50380;BME280;37474;59.468;18.040;2022-10-31T07:28:31;101561.41;;;6.52;100.00
50380;BME280;37474;59.468;18.040;2022-10-31T07:30:59;101560.38;;;6.59;100.00
50380;BME280;37474;59.468;18.040;2022-10-31T07:33:31;101590.78;;;6.84;100.00
50380;BME280;37474;59.468;18.040;2022-10-31T07:35:59;101533.81;;;6.57;100.00
50380;BME280;37474;59.468;18.040;2022-10-31T07:38:27;101582.56;;;7.05;100.00
50380;BME280;37474;59.468;18.040;2022-10-31T07:40:58;101572.31;;;7.02;100.00
50380;BME280;37474;59.468;18.040;2022-10-31T07:43:29;101575.84;;;6.98;100.00
50380;BME280;37474;59.468;18.040;2022-10-31T07:45:58;101575.69;;;7.04;100.00
50380;BME280;37474;59.468;18.040;2022-10-31T07:48:26;101552.69;;;6.97;100.00
50380;BME280;37474;59.468;18.040;2022-10-31T07:50:54;101569.31;;;7.21;100.00
50380;BME280;37474;59.468;18.040;2022-10-31T07:53:22;101566.56;;;7.27;100.00
50380;BME280;37474;59.468;18.040;2022-10-31T07:55:50;101546.34;;;7.11;100.00
50380;BME280;37474;59.468;18.040;2022-10-31T07:58:22;101551.28;;;7.19;100.00
50380;BME280;37474;59.468;18.040;2022-10-31T08:00:51;101573.88;;;7.45;100.00
50380;BME280;37474;59.468;18.040;2022-10-31T08:03:20;101554.34;;;7.35;100.00
50380;BME280;37474;59.468;18.040;2022-10-31T08:05:52;101563.50;;;7.47;100.00
50380;BME280;37474;59.468;18.040;2022-10-31T08:08:22;101573.41;;;7.63;100.00
50380;BME280;37474;59.468;18.040;2022-10-31T08:10:50;101538.66;;;7.43;100.00
50380;BME280;37474;59.468;18.040;2022-10-31T08:13:22;101576.72;;;7.68;100.00
50380;BME280;37474;59.468;18.040;2022-10-31T08:15:52;101550.19;;;7.63;100.00
50380;BME280;37474;59.468;18.040;2022-10-31T08:18:20;101572.16;;;7.78;100.00
50380;BME280;37474;59.468;18.040;2022-10-31T08:20:53;101580.59;;;7.85;100.00
50380;BME280;37474;59.468;18.040;2022-10-31T08:23:21;101584.47;;;8.01;100.00
50380;BME280;37474;59.468;18.040;2022-10-31T08:25:49;101558.19;;;7.85;100.00
50380;BME280;37474;59.468;18.040;2022-10-31T08:28:20;101534.41;;;7.74;100.00
50380;BME280;37474;59.468;18.040;2022-10-31T08:30:48;101581.88;;;8.01;100.00
50380;BME280;37474;59.468;18.040;2022-10-31T08:33:17;101581.03;;;8.01;100.00
50380;BME280;37474;59.468;18.040;2022-10-31T08:35:47;101591.03;;;8.13;100.00
50380;BME280;37474;59.468;18.040;2022-10-31T08:38:16;101588.38;;;8.14;100.00
50380;BME280;37474;59.468;18.040;2022-10-31T08:40:48;101551.94;;;7.94;100.00
50380;BME280;37474;59.468;18.040;2022-10-31T08:43:19;101552.53;;;8.04;100.00
50380;BME280;37474;59.468;18.040;2022-10-31T08:45:48;101572.59;;;8.25;100.00
50380;BME280;37474;59.468;18.040;2022-10-31T08:48:19;101557.16;;;8.24;100.00
50380;BME280;37474;59.468;18.040;2022-10-31T08:50:47;101560.25;;;8.35;100.00
50380;BME280;37474;59.468;18.040;2022-10-31T08:53:16;101573.25;;;8.32;100.00
50380;BME280;37474;59.468;18.040;2022-10-31T08:55:47;101554.69;;;8.19;100.00
50380;BME280;37474;59.468;18.040;2022-10-31T08:58:16;101568.53;;;8.48;100.00
50380;BME280;37474;59.468;18.040;2022-10-31T09:00:47;101573.94;;;8.40;100.00
50380;BME280;37474;59.468;18.040;2022-10-31T09:03:21;101534.81;;;8.21;100.00
50380;BME280;37474;59.468;18.040;2022-10-31T09:05:50;101540.63;;;8.29;100.00
50380;BME280;37474;59.468;18.040;2022-10-31T09:08:18;101583.53;;;8.64;100.00
50380;BME280;37474;59.468;18.040;2022-10-31T09:10:50;101556.63;;;8.42;100.00
50380;BME280;37474;59.468;18.040;2022-10-31T09:13:20;101602.34;;;8.69;100.00
50380;BME280;37474;59.468;18.040;2022-10-31T09:15:55;101602.78;;;8.84;100.00
50380;BME280;37474;59.468;18.040;2022-10-31T09:18:24;101582.56;;;8.68;100.00
50380;BME280;37474;59.468;18.040;2022-10-31T09:20:57;101602.16;;;8.76;100.00
50380;BME280;37474;59.468;18.040;2022-10-31T09:23:27;101556.25;;;8.56;100.00
50380;BME280;37474;59.468;18.040;2022-10-31T09:25:55;101603.53;;;8.87;100.00
50380;BME280;37474;59.468;18.040;2022-10-31T09:28:25;101595.03;;;8.84;100.00
50380;BME280;37474;59.468;18.040;2022-10-31T09:30:57;101609.38;;;8.94;100.00
50380;BME280;37474;59.468;18.040;2022-10-31T09:33:24;101579.78;;;8.75;100.00
50380;BME280;37474;59.468;18.040;2022-10-31T09:35:54;101565.91;;;8.77;100.00
50380;BME280;37474;59.468;18.040;2022-10-31T09:38:25;101565.78;;;8.82;100.00
50380;BME280;37474;59.468;18.040;2022-10-31T09:41:01;101576.13;;;8.82;100.00
50380;BME280;37474;59.468;18.040;2022-10-31T09:43:43;101600.41;;;9.04;100.00
50380;BME280;37474;59.468;18.040;2022-10-31T09:46:22;101559.94;;;8.75;100.00
50380;BME280;37474;59.468;18.040;2022-10-31T09:49:16;101587.00;;;9.19;100.00
50380;BME280;37474;59.468;18.040;2022-10-31T09:51:56;101583.91;;;9.08;100.00
50380;BME280;37474;59.468;18.040;2022-10-31T09:54:36;101531.75;;;8.67;100.00
50380;BME280;37474;59.468;18.040;2022-10-31T09:57:10;101592.56;;;9.07;100.00
50380;BME280;37474;59.468;18.040;2022-10-31T09:59:44;101570.56;;;9.22;100.00
50380;BME280;37474;59.468;18.040;2022-10-31T10:02:16;101579.09;;;9.24;100.00
50380;BME280;37474;59.468;18.040;2022-10-31T10:04:53;101580.66;;;9.30;100.00
50380;BME280;37474;59.468;18.040;2022-10-31T10:07:35;101571.09;;;9.32;100.00
50380;BME280;37474;59.468;18.040;2022-10-31T10:10:14;101571.63;;;9.41;100.00
50380;BME280;37474;59.468;18.040;2022-10-31T10:12:55;101571.47;;;9.46;100.00
50380;BME280;37474;59.468;18.040;2022-10-31T10:15:39;101580.84;;;9.50;100.00
50380;BME280;37474;59.468;18.040;2022-10-31T10:18:21;101575.34;;;9.59;100.00
50380;BME280;37474;59.468;18.040;2022-10-31T10:21:03;101582.59;;;9.74;100.00
50380;BME280;37474;59.468;18.040;2022-10-31T10:23:49;101586.25;;;9.69;100.00
50380;BME280;37474;59.468;18.040;2022-10-31T10:26:26;101583.75;;;9.66;100.00
50380;BME280;37474;59.468;18.040;2022-10-31T10:29:06;101510.47;;;9.39;100.00
50380;BME280;37474;59.468;18.040;2022-10-31T10:31:38;101585.94;;;9.78;100.00
50380;BME280;37474;59.468;18.040;2022-10-31T10:34:20;101581.53;;;9.55;100.00
50380;BME280;37474;59.468;18.040;2022-10-31T10:36:56;101581.72;;;9.49;100.00
50380;BME280;37474;59.468;18.040;2022-10-31T10:39:31;101566.50;;;9.66;100.00
50380;BME280;37474;59.468;18.040;2022-10-31T10:42:09;101580.19;;;9.93;100.00
50380;BME280;37474;59.468;18.040;2022-10-31T10:44:59;101583.50;;;10.23;100.00
50380;BME280;37474;59.468;18.040;2022-10-31T10:47:57;101548.97;;;10.21;100.00
50380;BME280;37474;59.468;18.040;2022-10-31T10:50:34;101589.56;;;10.46;100.00
50380;BME280;37474;59.468;18.040;2022-10-31T10:53:17;101553.16;;;10.25;100.00
50380;BME280;37474;59.468;18.040;2022-10-31T10:56:04;101579.81;;;10.52;100.00
50380;BME280;37474;59.468;18.040;2022-10-31T10:58:43;101556.28;;;10.35;100.00
50380;BME280;37474;59.468;18.040;2022-10-31T11:01:13;101587.13;;;10.65;100.00
50380;BME280;37474;59.468;18.040;2022-10-31T11:03:43;101549.09;;;10.42;100.00
50380;BME280;37474;59.468;18.040;2022-10-31T11:06:20;101549.69;;;10.50;100.00
50380;BME280;37474;59.468;18.040;2022-10-31T11:08:54;101573.31;;;10.64;100.00
50380;BME280;37474;59.468;18.040;2022-10-31T11:11:29;101588.16;;;10.82;100.00
50380;BME280;37474;59.468;18.040;2022-10-31T11:14:01;101560.88;;;10.50;100.00
50380;BME280;37474;59.468;18.040;2022-10-31T11:16:36;101599.16;;;10.67;100.00
50380;BME280;37474;59.468;18.040;2022-10-31T11:19:16;101571.97;;;10.54;100.00
50380;BME280;37474;59.468;18.040;2022-10-31T11:21:46;101600.69;;;10.71;100.00
50380;BME280;37474;59.468;18.040;2022-10-31T11:24:23;101585.38;;;10.65;100.00
50380;BME280;37474;59.468;18.040;2022-10-31T11:27:05;101603.25;;;10.73;100.00
50380;BME280;37474;59.468;18.040;2022-10-31T11:29:41;101598.31;;;10.89;100.00
50380;BME280;37474;59.468;18.040;2022-10-31T11:32:18;101598.84;;;10.75;100.00
50380;BME280;37474;59.468;18.040;2022-10-31T11:34:52;101576.38;;;10.52;100.00
50380;BME280;37474;59.468;18.040;2022-10-31T11:37:24;101595.31;;;10.77;100.00
50380;BME280;37474;59.468;18.040;2022-10-31T11:39:59;101599.41;;;11.05;100.00
50380;BME280;37474;59.468;18.040;2022-10-31T11:42:29;101597.16;;;11.18;100.00
50380;BME280;37474;59.468;18.040;2022-10-31T11:45:14;101563.72;;;11.10;100.00
50380;BME280;37474;59.468;18.040;2022-10-31T11:47:46;101593.94;;;11.55;100.00
50380;BME280;37474;59.468;18.040;2022-10-31T11:50:33;101572.63;;;11.67;100.00
50380;BME280;37474;59.468;18.040;2022-10-31T11:53:12;101575.34;;;12.05;100.00
50380;BME280;37474;59.468;18.040;2022-10-31T11:55:42;101572.97;;;12.19;100.00
50380;BME280;37474;59.468;18.040;2022-10-31T11:58:23;101564.44;;;12.15;100.00
50380;BME280;37474;59.468;18.040;2022-10-31T12:00:55;101569.34;;;12.23;100.00
50380;BME280;37474;59.468;18.040;2022-10-31T12:03:27;101575.44;;;12.22;100.00
50380;BME280;37474;59.468;18.040;2022-10-31T12:06:03;101543.84;;;11.72;100.00
50380;BME280;37474;59.468;18.040;2022-10-31T12:08:35;101580.03;;;11.97;100.00
50380;BME280;37474;59.468;18.040;2022-10-31T12:11:11;101552.75;;;11.46;100.00
50380;BME280;37474;59.468;18.040;2022-10-31T12:13:52;101542.66;;;11.38;100.00
50380;BME280;37474;59.468;18.040;2022-10-31T12:16:33;101549.56;;;11.39;100.00
50380;BME280;37474;59.468;18.040;2022-10-31T12:19:06;101572.44;;;11.51;100.00
50380;BME280;37474;59.468;18.040;2022-10-31T12:21:58;101522.78;;;11.39;100.00
50380;BME280;37474;59.468;18.040;2022-10-31T12:24:37;101571.13;;;11.61;100.00
50380;BME280;37474;59.468;18.040;2022-10-31T12:27:22;101565.97;;;11.80;100.00
50380;BME280;37474;59.468;18.040;2022-10-31T12:30:12;101549.25;;;11.47;100.00
50380;BME280;37474;59.468;18.040;2022-10-31T12:32:58;101559.91;;;11.81;100.00
50380;BME280;37474;59.468;18.040;2022-10-31T12:35:48;101537.47;;;11.38;100.00
50380;BME280;37474;59.468;18.040;2022-10-31T12:38:42;101555.19;;;11.49;100.00
50380;BME280;37474;59.468;18.040;2022-10-31T12:41:35;101566.19;;;11.76;100.00
50380;BME280;37474;59.468;18.040;2022-10-31T12:44:25;101563.06;;;11.88;100.00
50380;BME280;37474;59.468;18.040;2022-10-31T12:47:11;101560.53;;;12.07;100.00
50380;BME280;37474;59.468;18.040;2022-10-31T12:49:55;101541.59;;;11.84;100.00
50380;BME280;37474;59.468;18.040;2022-10-31T12:52:41;101535.97;;;11.94;100.00
50380;BME280;37474;59.468;18.040;2022-10-31T12:55:29;101557.16;;;12.05;100.00
50380;BME280;37474;59.468;18.040;2022-10-31T12:58:03;101560.84;;;11.99;100.00
50380;BME280;37474;59.468;18.040;2022-10-31T13:00:44;101547.63;;;11.85;100.00
50380;BME280;37474;59.468;18.040;2022-10-31T13:03:32;101562.38;;;12.05;100.00
50380;BME280;37474;59.468;18.040;2022-10-31T13:06:10;101552.66;;;12.08;100.00
50380;BME280;37474;59.468;18.040;2022-10-31T13:08:43;101558.41;;;11.96;100.00
50380;BME280;37474;59.468;18.040;2022-10-31T13:11:16;101523.53;;;11.81;100.00
50380;BME280;37474;59.468;18.040;2022-10-31T13:13:51;101563.84;;;12.10;100.00